Flight Track Log - Related Links

Times and Time Zones

All times are in EDT time to prevent confusion due to time zone crossing. See the SAA265 flight status page for this flight to view local times or setup timezone preferences in your user account.

Time Position Orientation Groundspeed Altitude Reporting Facility
EDT Latitude Longitude Course Direction KTS MPH feet Rate Location/Type
Mon 04:14:15 PM 48.3227 11.7988 182° South  Level Estimated
Mon 04:15:15 PM 48.1982 11.8495 182° South  Level Estimated
Mon 04:16:15 PM 48.0737 11.8999 183° South  Level Estimated
Mon 04:17:15 PM 47.9493 11.9501 183° South  Level Estimated
Mon 04:18:15 PM 47.8247 12.0001 184° South  Level Estimated
Mon 04:19:15 PM 47.7002 12.0498 184° South  Level Estimated
Mon 04:20:15 PM 47.5757 12.0993 185° South  Level Estimated
Mon 04:21:15 PM 47.4511 12.1486 186° South  Level Estimated
Mon 04:22:15 PM 47.3265 12.1976 187° South  Level Estimated
Mon 04:23:15 PM 47.2019 12.2464 187° South  Level Estimated
Mon 04:24:15 PM 47.0772 12.2949 188° South  Level Estimated
Mon 04:25:15 PM 46.9526 12.3433 189° South  Level Estimated
Mon 04:26:15 PM 46.8279 12.3914 190° South  Level Estimated
Mon 04:27:15 PM 46.7032 12.4393 191° South  Level Estimated
Mon 04:28:15 PM 46.5785 12.4869 192° South  Level Estimated
Mon 04:29:15 PM 46.4537 12.5344 194° South  Level Estimated
Mon 04:30:15 PM 46.3290 12.5816 195° South  Level Estimated
Mon 04:31:15 PM 46.2042 12.6286 197° South  Level Estimated
Mon 04:32:15 PM 46.0794 12.6754 198° South  Level Estimated
Mon 04:33:15 PM 45.9546 12.7220 200° South  Level Estimated
Mon 04:34:15 PM 45.8297 12.7684 202° Southwest  Level Estimated
Mon 04:35:15 PM 45.7049 12.8146 204° Southwest  Level Estimated
Mon 04:36:15 PM 45.5800 12.8605 206° Southwest  Level Estimated
Mon 04:37:15 PM 45.4551 12.9063 209° Southwest  Level Estimated
Mon 04:38:15 PM 45.3302 12.9518 212° Southwest  Level Estimated
Mon 04:39:15 PM 45.2053 12.9972 215° Southwest  Level Estimated
Mon 04:40:15 PM 45.0803 13.0424 218° Southwest  Level Estimated
Mon 04:41:15 PM 44.9554 13.0873 222° Southwest  Level Estimated
Mon 04:42:15 PM 44.8304 13.1321 226° Southwest  Level Estimated
Mon 04:43:15 PM 44.7054 13.1767 230° Southwest  Level Estimated
Mon 04:44:15 PM 44.5804 13.2211 235° Southwest  Level Estimated
Mon 04:45:15 PM 44.4554 13.2653 240° Southwest  Level Estimated
Mon 04:46:15 PM 44.3303 13.3092 245° Southwest  Level Estimated
Mon 04:47:15 PM 44.2052 13.3531 251° West  Level Estimated
Mon 04:48:15 PM 44.0802 13.3967 256° West  Level Estimated
Mon 04:49:15 PM 43.9551 13.4402 262° West  Level Estimated
Mon 04:55:12 PM 43.7547 11.6218 177° South 471 542 35,000  Level FlightAware
Mon 05:02:03 PM 42.8399 11.6838 164° South 486 559 35,000  Level FlightAware
Mon 05:09:15 PM 41.9458 12.0223 164° South  Level Estimated
Mon 05:10:15 PM 41.8216 12.0686 165° South  Level Estimated
Mon 05:11:15 PM 41.6973 12.1147 165° South  Level Estimated
Mon 05:12:15 PM 41.5730 12.1606 165° South  Level Estimated
Mon 05:13:15 PM 41.4487 12.2063 165° South  Level Estimated
Mon 05:14:15 PM 41.3244 12.2519 165° South  Level Estimated
Mon 05:15:15 PM 41.2000 12.2973 165° South  Level Estimated
Mon 05:16:15 PM 41.0756 12.3425 165° South  Level Estimated
Mon 05:17:15 PM 40.9513 12.3875 165° South  Level Estimated
Mon 05:18:15 PM 40.8269 12.4324 165° South  Level Estimated
Mon 05:19:15 PM 40.7024 12.4771 165° South  Level Estimated
Mon 05:20:15 PM 40.5780 12.5216 165° South  Level Estimated
Mon 05:21:15 PM 40.4535 12.5660 165° South  Level Estimated
Mon 05:22:15 PM 40.3291 12.6102 165° South  Level Estimated
Mon 05:23:15 PM 40.2046 12.6543 165° South  Level Estimated
Mon 05:24:15 PM 40.0801 12.6981 165° South  Level Estimated
Mon 05:25:15 PM 39.9556 12.7418 165° South  Level Estimated
Mon 05:26:15 PM 39.8310 12.7854 165° South  Level Estimated
Mon 05:27:15 PM 39.7065 12.8288 165° South  Level Estimated
Mon 05:28:15 PM 39.5819 12.8721 165° South  Level Estimated
Mon 05:29:15 PM 39.4573 12.9152 165° South  Level Estimated
Mon 05:30:15 PM 39.3327 12.9581 165° South  Level Estimated
Mon 05:31:15 PM 39.2081 13.0009 165° South  Level Estimated
Mon 05:32:15 PM 39.0835 13.0435 165° South  Level Estimated
Mon 05:33:15 PM 38.9589 13.0860 165° South  Level Estimated
Mon 05:34:15 PM 38.8342 13.1284 165° South  Level Estimated
Mon 05:35:15 PM 38.7095 13.1706 165° South  Level Estimated
Mon 05:36:15 PM 38.5848 13.2126 165° South  Level Estimated
Mon 05:37:15 PM 38.4601 13.2545 165° South  Level Estimated
Mon 05:38:15 PM 38.3354 13.2962 165° South  Level Estimated
Mon 05:39:15 PM 38.2107 13.3378 165° South  Level Estimated
Mon 05:40:15 PM 38.0859 13.3793 165° South  Level Estimated
Mon 05:41:15 PM 37.9612 13.4206 165° South  Level Estimated
Mon 05:42:15 PM 37.8364 13.4618 165° South  Level Estimated
Mon 05:43:15 PM 37.7116 13.5028 165° South  Level Estimated
Mon 05:44:15 PM 37.5868 13.5438 165° South  Level Estimated
Mon 05:45:15 PM 37.4620 13.5845 165° South  Level Estimated
Mon 05:46:15 PM 37.3371 13.6252 166° South  Level Estimated
Mon 05:47:15 PM 37.2123 13.6657 166° South  Level Estimated
Mon 05:48:15 PM 37.0874 13.7060 166° South  Level Estimated
Mon 05:49:15 PM 36.9626 13.7463 166° South  Level Estimated
Mon 05:50:15 PM 36.8377 13.7864 166° South  Level Estimated
Mon 05:51:15 PM 36.7128 13.8263 166° South  Level Estimated
Mon 05:52:15 PM 36.5878 13.8662 166° South  Level Estimated
Mon 05:53:15 PM 36.4629 13.9059 166° South  Level Estimated
Mon 05:54:15 PM 36.3380 13.9454 166° South  Level Estimated
Mon 05:55:15 PM 36.2130 13.9849 166° South  Level Estimated
Mon 05:56:15 PM 36.0880 14.0242 166° South  Level Estimated
Mon 05:57:15 PM 35.9631 14.0634 166° South  Level Estimated
Mon 05:58:15 PM 35.8381 14.1025 166° South  Level Estimated
Mon 05:59:15 PM 35.7131 14.1415 166° South  Level Estimated
Mon 06:00:15 PM 35.5880 14.1803 166° South  Level Estimated
Mon 06:01:15 PM 35.4630 14.2191 166° South  Level Estimated
Mon 06:02:15 PM 35.3380 14.2577 166° South  Level Estimated
Mon 06:03:15 PM 35.2129 14.2961 166° South  Level Estimated
Mon 06:04:15 PM 35.0878 14.3345 166° South  Level Estimated
Mon 06:05:15 PM 34.9627 14.3727 166° South  Level Estimated
Mon 06:06:15 PM 34.8377 14.4108 166° South  Level Estimated
Mon 06:07:15 PM 34.7126 14.4489 166° South  Level Estimated
Mon 06:08:15 PM 34.5874 14.4867 166° South  Level Estimated
Mon 06:09:15 PM 34.4623 14.5245 166° South  Level Estimated
Mon 06:10:15 PM 34.3372 14.5622 166° South  Level Estimated
Mon 06:11:15 PM 34.2120 14.5997 166° South  Level Estimated
Mon 06:12:15 PM 34.0869 14.6372 166° South  Level Estimated
Mon 06:13:15 PM 33.9617 14.6745 166° South  Level Estimated
Mon 06:14:15 PM 33.8365 14.7117 166° South  Level Estimated
Mon 06:15:15 PM 33.7113 14.7488 166° South  Level Estimated
Mon 06:16:15 PM 33.5861 14.7859 166° South  Level Estimated
Mon 06:17:15 PM 33.4609 14.8228 166° South  Level Estimated
Mon 06:18:15 PM 33.3356 14.8596 166° South  Level Estimated
Mon 06:19:15 PM 33.2104 14.8962 166° South  Level Estimated
Mon 06:20:15 PM 33.0852 14.9328 166° South  Level Estimated
Mon 06:21:15 PM 32.9599 14.9693 166° South  Level Estimated
Mon 06:22:15 PM 32.8346 15.0057 166° South  Level Estimated
Mon 06:23:15 PM 32.7093 15.0419 166° South  Level Estimated
Mon 06:24:15 PM 32.5840 15.0781 166° South  Level Estimated
Mon 06:25:15 PM 32.4588 15.1142 166° South  Level Estimated
Mon 06:26:15 PM 32.3334 15.1502 166° South  Level Estimated
Mon 06:27:15 PM 32.2081 15.1860 166° South  Level Estimated
Mon 06:28:15 PM 32.0828 15.2218 166° South  Level Estimated
Mon 06:29:15 PM 31.9575 15.2575 166° South  Level Estimated
Mon 06:30:15 PM 31.8321 15.2930 166° South  Level Estimated
Mon 06:31:15 PM 31.7067 15.3285 166° South  Level Estimated
Mon 06:32:15 PM 31.5814 15.3639 166° South  Level Estimated
Mon 06:33:15 PM 31.4560 15.3992 167° South  Level Estimated
Mon 06:34:15 PM 31.3306 15.4344 167° South  Level Estimated
Mon 06:35:15 PM 31.2052 15.4695 167° South  Level Estimated
Mon 06:36:15 PM 31.0798 15.5045 167° South  Level Estimated
Mon 06:37:15 PM 30.9544 15.5394 167° South  Level Estimated
Mon 06:38:15 PM 30.8289 15.5742 167° South  Level Estimated
Mon 06:39:15 PM 30.7035 15.6089 167° South  Level Estimated
Mon 06:40:15 PM 30.5781 15.6436 167° South  Level Estimated
Mon 06:41:15 PM 30.4526 15.6781 167° South  Level Estimated
Mon 06:42:15 PM 30.3271 15.7126 167° South  Level Estimated
Mon 06:43:15 PM 30.2016 15.7470 167° South  Level Estimated
Mon 06:44:15 PM 30.0762 15.7813 167° South  Level Estimated
Mon 06:45:15 PM 29.9507 15.8155 167° South  Level Estimated
Mon 06:46:15 PM 29.8252 15.8496 167° South  Level Estimated
Mon 06:47:15 PM 29.6996 15.8836 167° South  Level Estimated
Mon 06:48:15 PM 29.5741 15.9176 167° South  Level Estimated
Mon 06:49:15 PM 29.4486 15.9514 167° South  Level Estimated
Mon 06:50:15 PM 29.3231 15.9852 167° South  Level Estimated
Mon 06:51:15 PM 29.1975 16.0189 167° South  Level Estimated
Mon 06:52:15 PM 29.0720 16.0525 167° South  Level Estimated
Mon 06:53:15 PM 28.9464 16.0860 167° South  Level Estimated
Mon 06:54:15 PM 28.8208 16.1195 167° South  Level Estimated
Mon 06:55:15 PM 28.6952 16.1528 167° South  Level Estimated
Mon 06:56:15 PM 28.5697 16.1861 167° South  Level Estimated
Mon 06:57:15 PM 28.4441 16.2193 167° South  Level Estimated
Mon 06:58:15 PM 28.3185 16.2525 167° South  Level Estimated
Mon 06:59:15 PM 28.1929 16.2855 167° South  Level Estimated
Mon 07:00:15 PM 28.0672 16.3185 167° South  Level Estimated
Mon 07:01:15 PM 27.9416 16.3514 167° South  Level Estimated
Mon 07:02:15 PM 27.8160 16.3842 167° South  Level Estimated
Mon 07:03:15 PM 27.6903 16.4170 167° South  Level Estimated
Mon 07:04:15 PM 27.5647 16.4496 167° South  Level Estimated
Mon 07:05:15 PM 27.4390 16.4822 167° South  Level Estimated
Mon 07:06:15 PM 27.3134 16.5147 167° South  Level Estimated
Mon 07:07:15 PM 27.1877 16.5472 167° South  Level Estimated
Mon 07:08:15 PM 27.0620 16.5795 167° South  Level Estimated
Mon 07:09:15 PM 26.9363 16.6119 167° South  Level Estimated
Mon 07:10:15 PM 26.8106 16.6441 167° South  Level Estimated
Mon 07:11:15 PM 26.6849 16.6762 167° South  Level Estimated
Mon 07:12:15 PM 26.5592 16.7083 167° South  Level Estimated
Mon 07:13:15 PM 26.4335 16.7404 167° South  Level Estimated
Mon 07:14:15 PM 26.3078 16.7723 167° South  Level Estimated
Mon 07:15:15 PM 26.1820 16.8042 167° South  Level Estimated
Mon 07:16:15 PM 26.0563 16.8360 167° South  Level Estimated
Mon 07:17:15 PM 25.9305 16.8677 167° South  Level Estimated
Mon 07:18:15 PM 25.8048 16.8994 167° South  Level Estimated
Mon 07:19:15 PM 25.6790 16.9310 167° South  Level Estimated
Mon 07:20:15 PM 25.5533 16.9625 167° South  Level Estimated
Mon 07:21:15 PM 25.4275 16.9940 167° South  Level Estimated
Mon 07:22:15 PM 25.3017 17.0254 167° South  Level Estimated
Mon 07:23:15 PM 25.1759 17.0568 167° South  Level Estimated
Mon 07:24:15 PM 25.0501 17.0881 167° South  Level Estimated
Mon 07:25:15 PM 24.9243 17.1193 167° South  Level Estimated
Mon 07:26:15 PM 24.7985 17.1504 167° South  Level Estimated
Mon 07:27:15 PM 24.6727 17.1815 167° South  Level Estimated
Mon 07:28:15 PM 24.5469 17.2125 167° South  Level Estimated
Mon 07:29:15 PM 24.4211 17.2435 167° South  Level Estimated
Mon 07:30:15 PM 24.2952 17.2744 167° South  Level Estimated
Mon 07:31:15 PM 24.1694 17.3052 167° South  Level Estimated
Mon 07:32:15 PM 24.0436 17.3360 167° South  Level Estimated
Mon 07:33:15 PM 23.9177 17.3667 167° South  Level Estimated
Mon 07:34:15 PM 23.7918 17.3974 167° South  Level Estimated
Mon 07:35:15 PM 23.6660 17.4280 167° South  Level Estimated
Mon 07:36:15 PM 23.5401 17.4585 167° South  Level Estimated
Mon 07:37:15 PM 23.4142 17.4890 167° South  Level Estimated
Mon 07:38:15 PM 23.2884 17.5194 167° South  Level Estimated
Mon 07:39:15 PM 23.1625 17.5498 168° South  Level Estimated
Mon 07:40:15 PM 23.0366 17.5801 168° South  Level Estimated
Mon 07:41:15 PM 22.9107 17.6103 168° South  Level Estimated
Mon 07:42:15 PM 22.7848 17.6406 168° South  Level Estimated
Mon 07:43:15 PM 22.6589 17.6707 168° South  Level Estimated
Mon 07:44:15 PM 22.5330 17.7008 168° South  Level Estimated
Mon 07:45:15 PM 22.4071 17.7308 168° South  Level Estimated
Mon 07:46:15 PM 22.2811 17.7608 168° South  Level Estimated
Mon 07:47:15 PM 22.1552 17.7907 168° South  Level Estimated
Mon 07:48:15 PM 22.0293 17.8206 168° South  Level Estimated
Mon 07:49:15 PM 21.9033 17.8504 168° South  Level Estimated
Mon 07:50:15 PM 21.7774 17.8802 168° South  Level Estimated
Mon 07:51:15 PM 21.6514 17.9099 168° South  Level Estimated
Mon 07:52:15 PM 21.5255 17.9395 168° South  Level Estimated
Mon 07:53:15 PM 21.3995 17.9691 168° South  Level Estimated
Mon 07:54:15 PM 21.2735 17.9987 168° South  Level Estimated
Mon 07:55:15 PM 21.1476 18.0282 168° South  Level Estimated
Mon 07:56:15 PM 21.0216 18.0577 168° South  Level Estimated
Mon 07:57:15 PM 20.8956 18.0871 168° South  Level Estimated
Mon 07:58:15 PM 20.7696 18.1164 168° South  Level Estimated
Mon 07:59:15 PM 20.6436 18.1458 168° South  Level Estimated
Mon 08:00:15 PM 20.5176 18.1750 168° South  Level Estimated
Mon 08:01:15 PM 20.3916 18.2042 168° South  Level Estimated
Mon 08:02:15 PM 20.2656 18.2334 168° South  Level Estimated
Mon 08:03:15 PM 20.1396 18.2625 168° South  Level Estimated
Mon 08:04:15 PM 20.0136 18.2916 168° South  Level Estimated
Mon 08:05:15 PM 19.8876 18.3206 168° South  Level Estimated
Mon 08:06:15 PM 19.7615 18.3496 168° South  Level Estimated
Mon 08:07:15 PM 19.6355 18.3785 168° South  Level Estimated
Mon 08:08:15 PM 19.5095 18.4074 168° South  Level Estimated
Mon 08:09:15 PM 19.3834 18.4362 168° South  Level Estimated
Mon 08:10:15 PM 19.2574 18.4650 168° South  Level Estimated
Mon 08:11:15 PM 19.1313 18.4938 168° South  Level Estimated
Mon 08:12:15 PM 19.0053 18.5225 168° South  Level Estimated
Mon 08:13:15 PM 18.8792 18.5511 168° South  Level Estimated
Mon 08:14:15 PM 18.7532 18.5798 168° South  Level Estimated
Mon 08:15:15 PM 18.6271 18.6084 168° South  Level Estimated
Mon 08:16:15 PM 18.5010 18.6369 168° South  Level Estimated
Mon 08:17:15 PM 18.3750 18.6654 168° South  Level Estimated
Mon 08:18:15 PM 18.2489 18.6938 168° South  Level Estimated
Mon 08:19:15 PM 18.1228 18.7222 168° South  Level Estimated
Mon 08:20:15 PM 17.9967 18.7506 168° South  Level Estimated
Mon 08:21:15 PM 17.8706 18.7789 168° South  Level Estimated
Mon 08:22:15 PM 17.7445 18.8072 168° South  Level Estimated
Mon 08:23:15 PM 17.6184 18.8355 168° South  Level Estimated
Mon 08:24:15 PM 17.4923 18.8637 168° South  Level Estimated
Mon 08:25:15 PM 17.3662 18.8919 168° South  Level Estimated
Mon 08:26:15 PM 17.2401 18.9200 168° South  Level Estimated
Mon 08:27:15 PM 17.1140 18.9481 168° South  Level Estimated
Mon 08:28:15 PM 16.9879 18.9761 168° South  Level Estimated
Mon 08:29:15 PM 16.8617 19.0042 168° South  Level Estimated
Mon 08:30:15 PM 16.7356 19.0321 168° South  Level Estimated
Mon 08:31:15 PM 16.6095 19.0601 168° South  Level Estimated
Mon 08:32:15 PM 16.4833 19.0880 168° South  Level Estimated
Mon 08:33:15 PM 16.3572 19.1159 168° South  Level Estimated
Mon 08:34:15 PM 16.2311 19.1437 168° South  Level Estimated
Mon 08:35:15 PM 16.1049 19.1715 168° South  Level Estimated
Mon 08:36:15 PM 15.9788 19.1992 168° South  Level Estimated
Mon 08:37:15 PM 15.8526 19.2270 168° South  Level Estimated
Mon 08:38:15 PM 15.7264 19.2547 168° South  Level Estimated
Mon 08:39:15 PM 15.6003 19.2823 168° South  Level Estimated
Mon 08:40:15 PM 15.4741 19.3100 168° South  Level Estimated
Mon 08:41:15 PM 15.3480 19.3375 168° South  Level Estimated
Mon 08:42:15 PM 15.2218 19.3651 168° South  Level Estimated
Mon 08:43:15 PM 15.0956 19.3926 168° South  Level Estimated
Mon 08:44:15 PM 14.9694 19.4201 168° South  Level Estimated
Mon 08:45:15 PM 14.8433 19.4476 168° South  Level Estimated
Mon 08:46:15 PM 14.7171 19.4750 168° South  Level Estimated
Mon 08:47:15 PM 14.5909 19.5024 168° South  Level Estimated
Mon 08:48:15 PM 14.4647 19.5298 168° South  Level Estimated
Mon 08:49:15 PM 14.3385 19.5571 168° South  Level Estimated
Mon 08:50:15 PM 14.2123 19.5844 168° South  Level Estimated
Mon 08:51:15 PM 14.0861 19.6117 168° South  Level Estimated
Mon 08:52:15 PM 13.9599 19.6389 168° South  Level Estimated
Mon 08:53:15 PM 13.8337 19.6661 168° South  Level Estimated
Mon 08:54:15 PM 13.7075 19.6933 168° South  Level Estimated
Mon 08:55:15 PM 13.5813 19.7205 168° South  Level Estimated
Mon 08:56:15 PM 13.4551 19.7476 168° South  Level Estimated
Mon 08:57:15 PM 13.3288 19.7747 168° South  Level Estimated
Mon 08:58:15 PM 13.2026 19.8018 168° South  Level Estimated
Mon 08:59:15 PM 13.0764 19.8288 168° South  Level Estimated
Mon 09:00:15 PM 12.9502 19.8558 168° South  Level Estimated
Mon 09:01:15 PM 12.8239 19.8828 168° South  Level Estimated
Mon 09:02:15 PM 12.6977 19.9098 168° South  Level Estimated
Mon 09:03:15 PM 12.5715 19.9367 168° South  Level Estimated
Mon 09:04:15 PM 12.4452 19.9636 168° South  Level Estimated
Mon 09:05:15 PM 12.3190 19.9905 168° South  Level Estimated
Mon 09:06:15 PM 12.1928 20.0174 168° South  Level Estimated
Mon 09:07:15 PM 12.0665 20.0442 168° South  Level Estimated
Mon 09:08:15 PM 11.9403 20.0710 168° South  Level Estimated
Mon 09:09:15 PM 11.8140 20.0978 168° South  Level Estimated
Mon 09:10:15 PM 11.6878 20.1245 168° South  Level Estimated
Mon 09:11:15 PM 11.5615 20.1513 168° South  Level Estimated
Mon 09:12:15 PM 11.4353 20.1780 168° South  Level Estimated
Mon 09:13:15 PM 11.3090 20.2046 168° South  Level Estimated
Mon 09:14:15 PM 11.1827 20.2313 168° South  Level Estimated
Mon 09:15:15 PM 11.0565 20.2579 168° South  Level Estimated
Mon 09:16:15 PM 10.9302 20.2845 168° South  Level Estimated
Mon 09:17:15 PM 10.8040 20.3111 168° South  Level Estimated
Mon 09:18:15 PM 10.6777 20.3377 168° South  Level Estimated
Mon 09:19:15 PM 10.5514 20.3642 168° South  Level Estimated
Mon 09:20:15 PM 10.4251 20.3908 168° South  Level Estimated
Mon 09:21:15 PM 10.2989 20.4173 168° South  Level Estimated
Mon 09:22:15 PM 10.1726 20.4437 168° South  Level Estimated
Mon 09:23:15 PM 10.0463 20.4702 168° South  Level Estimated
Mon 09:24:15 PM 9.9200 20.4966 168° South  Level Estimated
Mon 09:25:15 PM 9.7937 20.5231 168° South  Level Estimated
Mon 09:26:15 PM 9.6674 20.5495 168° South  Level Estimated
Mon 09:27:15 PM 9.5411 20.5758 168° South  Level Estimated
Mon 09:28:15 PM 9.4149 20.6022 168° South  Level Estimated
Mon 09:29:15 PM 9.2886 20.6285 168° South  Level Estimated
Mon 09:30:15 PM 9.1623 20.6549 168° South  Level Estimated
Mon 09:31:15 PM 9.0360 20.6812 168° South  Level Estimated
Mon 09:32:15 PM 8.9097 20.7074 168° South  Level Estimated
Mon 09:33:15 PM 8.7834 20.7337 168° South  Level Estimated
Mon 09:34:15 PM 8.6571 20.7600 168° South  Level Estimated
Mon 09:35:15 PM 8.5308 20.7862 168° South  Level Estimated
Mon 09:36:15 PM 8.4044 20.8124 168° South  Level Estimated
Mon 09:37:15 PM 8.2781 20.8386 168° South  Level Estimated
Mon 09:38:15 PM 8.1518 20.8648 168° South  Level Estimated
Mon 09:39:15 PM 8.0255 20.8909 168° South  Level Estimated
Mon 09:40:15 PM 7.8992 20.9171 168° South  Level Estimated
Mon 09:41:15 PM 7.7729 20.9432 168° South  Level Estimated
Mon 09:42:15 PM 7.6466 20.9693 168° South  Level Estimated
Mon 09:43:15 PM 7.5202 20.9954 168° South  Level Estimated
Mon 09:44:15 PM 7.3939 21.0215 168° South  Level Estimated
Mon 09:45:15 PM 7.2676 21.0476 168° South  Level Estimated
Mon 09:46:15 PM 7.1413 21.0736 168° South  Level Estimated
Mon 09:47:15 PM 7.0150 21.0996 168° South  Level Estimated
Mon 09:48:15 PM 6.8886 21.1257 168° South  Level Estimated
Mon 09:49:15 PM 6.7623 21.1517 168° South  Level Estimated
Mon 09:50:15 PM 6.6360 21.1777 168° South  Level Estimated
Mon 09:51:15 PM 6.5096 21.2037 168° South  Level Estimated
Mon 09:52:15 PM 6.3833 21.2296 168° South  Level Estimated
Mon 09:53:15 PM 6.2570 21.2556 168° South  Level Estimated
Mon 09:54:15 PM 6.1307 21.2815 168° South  Level Estimated
Mon 09:55:15 PM 6.0043 21.3075 168° South  Level Estimated
Mon 09:56:15 PM 5.8780 21.3334 168° South  Level Estimated
Mon 09:57:15 PM 5.7516 21.3593 168° South  Level Estimated
Mon 09:58:15 PM 5.6253 21.3852 168° South  Level Estimated
Mon 09:59:15 PM 5.4990 21.4111 168° South  Level Estimated
Mon 10:00:15 PM 5.3726 21.4370 168° South  Level Estimated
Mon 10:01:15 PM 5.2463 21.4628 168° South  Level Estimated
Mon 10:02:15 PM 5.1199 21.4887 168° South  Level Estimated
Mon 10:03:15 PM 4.9936 21.5145 168° South  Level Estimated
Mon 10:04:15 PM 4.8672 21.5404 168° South  Level Estimated
Mon 10:05:15 PM 4.7409 21.5662 168° South  Level Estimated
Mon 10:06:15 PM 4.6145 21.5920 168° South  Level Estimated
Mon 10:07:15 PM 4.4882 21.6178 168° South  Level Estimated
Mon 10:08:15 PM 4.3618 21.6436 168° South  Level Estimated
Mon 10:09:15 PM 4.2355 21.6694 168° South  Level Estimated
Mon 10:10:15 PM 4.1091 21.6952 168° South  Level Estimated
Mon 10:11:15 PM 3.9828 21.7209 169° South  Level Estimated
Mon 10:12:15 PM 3.8564 21.7467 169° South  Level Estimated
Mon 10:13:15 PM 3.7301 21.7725 169° South  Level Estimated
Mon 10:14:15 PM 3.6037 21.7982 169° South  Level Estimated
Mon 10:15:15 PM 3.4774 21.8239 169° South  Level Estimated
Mon 10:16:15 PM 3.3510 21.8497 169° South  Level Estimated
Mon 10:17:15 PM 3.2247 21.8754 169° South  Level Estimated
Mon 10:18:15 PM 3.0983 21.9011 169° South  Level Estimated
Mon 10:19:15 PM 2.9719 21.9268 169° South  Level Estimated
Mon 10:20:15 PM 2.8456 21.9526 169° South  Level Estimated
Mon 10:21:15 PM 2.7192 21.9783 169° South  Level Estimated
Mon 10:22:15 PM 2.5929 22.0040 169° South  Level Estimated
Mon 10:23:15 PM 2.4665 22.0296 169° South  Level Estimated
Mon 10:24:15 PM 2.3401 22.0553 169° South  Level Estimated
Mon 10:25:15 PM 2.2138 22.0810 169° South  Level Estimated
Mon 10:26:15 PM 2.0874 22.1067 169° South  Level Estimated
Mon 10:27:15 PM 1.9611 22.1324 169° South  Level Estimated
Mon 10:28:15 PM 1.8347 22.1581 169° South  Level Estimated
Mon 10:29:15 PM 1.7083 22.1837 169° South  Level Estimated
Mon 10:30:15 PM 1.5820 22.2094 169° South  Level Estimated
Mon 10:31:15 PM 1.4556 22.2350 169° South  Level Estimated
Mon 10:32:15 PM 1.3293 22.2607 169° South  Level Estimated
Mon 10:33:15 PM 1.2029 22.2864 169° South  Level Estimated
Mon 10:34:15 PM 1.0765 22.3120 169° South  Level Estimated
Mon 10:35:15 PM 0.9502 22.3377 169° South  Level Estimated
Mon 10:36:15 PM 0.8238 22.3633 169° South  Level Estimated
Mon 10:37:15 PM 0.6975 22.3890 169° South  Level Estimated
Mon 10:38:15 PM 0.5711 22.4146 169° South  Level Estimated
Mon 10:39:15 PM 0.4447 22.4403 169° South  Level Estimated
Mon 10:40:15 PM 0.3184 22.4659 169° South  Level Estimated
Mon 10:41:15 PM 0.1920 22.4915 169° South  Level Estimated
Mon 10:42:15 PM 0.0656 22.5172 169° South  Level Estimated
Mon 10:43:15 PM -0.0607 22.5428 169° South  Level Estimated
Mon 10:44:15 PM -0.1871 22.5685 169° South  Level Estimated
Mon 10:45:15 PM -0.3135 22.5941 169° South  Level Estimated
Mon 10:46:15 PM -0.4398 22.6197 169° South  Level Estimated
Mon 10:47:15 PM -0.5662 22.6454 169° South  Level Estimated
Mon 10:48:15 PM -0.6926 22.6710 169° South  Level Estimated
Mon 10:49:15 PM -0.8189 22.6967 169° South  Level Estimated
Mon 10:50:15 PM -0.9453 22.7223 169° South  Level Estimated
Mon 10:51:15 PM -1.0716 22.7480 169° South  Level Estimated
Mon 10:52:15 PM -1.1980 22.7736 169° South  Level Estimated
Mon 10:53:15 PM -1.3244 22.7993 169° South  Level Estimated
Mon 10:54:15 PM -1.4507 22.8250 169° South  Level Estimated
Mon 10:55:15 PM -1.5771 22.8506 169° South  Level Estimated
Mon 10:56:15 PM -1.7034 22.8763 169° South  Level Estimated
Mon 10:57:15 PM -1.8298 22.9020 169° South  Level Estimated
Mon 10:58:15 PM -1.9562 22.9276 169° South  Level Estimated
Mon 10:59:15 PM -2.0825 22.9533 169° South  Level Estimated
Mon 11:00:15 PM -2.2089 22.9790 169° South  Level Estimated
Mon 11:01:15 PM -2.3352 23.0047 169° South  Level Estimated
Mon 11:02:15 PM -2.4616 23.0304 169° South  Level Estimated
Mon 11:03:15 PM -2.5880 23.0560 169° South  Level Estimated
Mon 11:04:15 PM -2.7143 23.0818 169° South  Level Estimated
Mon 11:05:15 PM -2.8407 23.1075 169° South  Level Estimated
Mon 11:06:15 PM -2.9670 23.1332 169° South  Level Estimated
Mon 11:07:15 PM -3.0934 23.1589 169° South  Level Estimated
Mon 11:08:15 PM -3.2198 23.1846 169° South  Level Estimated
Mon 11:09:15 PM -3.3461 23.2103 169° South  Level Estimated
Mon 11:10:15 PM -3.4725 23.2361 169° South  Level Estimated
Mon 11:11:15 PM -3.5988 23.2618 169° South  Level Estimated
Mon 11:12:15 PM -3.7252 23.2875 169° South  Level Estimated
Mon 11:13:15 PM -3.8515 23.3133 169° South  Level Estimated
Mon 11:14:15 PM -3.9779 23.3391 169° South  Level Estimated
Mon 11:15:15 PM -4.1042 23.3648 168° South  Level Estimated
Mon 11:16:15 PM -4.2306 23.3906 168° South  Level Estimated
Mon 11:17:15 PM -4.3569 23.4164 168° South  Level Estimated
Mon 11:18:15 PM -4.4833 23.4422 168° South  Level Estimated
Mon 11:19:15 PM -4.6096 23.4680 168° South  Level Estimated
Mon 11:20:15 PM -4.7360 23.4938 168° South  Level Estimated
Mon 11:21:15 PM -4.8623 23.5196 168° South  Level Estimated
Mon 11:22:15 PM -4.9887 23.5455 168° South  Level Estimated
Mon 11:23:15 PM -5.1150 23.5713 168° South  Level Estimated
Mon 11:24:15 PM -5.2414 23.5972 168° South  Level Estimated
Mon 11:25:15 PM -5.3677 23.6230 168° South  Level Estimated
Mon 11:26:15 PM -5.4941 23.6489 168° South  Level Estimated
Mon 11:27:15 PM -5.6204 23.6748 168° South  Level Estimated
Mon 11:28:15 PM -5.7467 23.7007 168° South  Level Estimated
Mon 11:29:15 PM -5.8731 23.7266 168° South  Level Estimated
Mon 11:30:15 PM -5.9994 23.7525 168° South  Level Estimated
Mon 11:31:15 PM -6.1258 23.7785 168° South  Level Estimated
Mon 11:32:15 PM -6.2521 23.8044 168° South  Level Estimated
Mon 11:33:15 PM -6.3784 23.8304 168° South  Level Estimated
Mon 11:34:15 PM -6.5047 23.8563 168° South  Level Estimated
Mon 11:35:15 PM -6.6311 23.8823 168° South  Level Estimated
Mon 11:36:15 PM -6.7574 23.9083 168° South  Level Estimated
Mon 11:37:15 PM -6.8837 23.9343 168° South  Level Estimated
Mon 11:38:15 PM -7.0101 23.9604 168° South  Level Estimated
Mon 11:39:15 PM -7.1364 23.9864 168° South  Level Estimated
Mon 11:40:15 PM -7.2627 24.0124 168° South  Level Estimated
Mon 11:41:15 PM -7.3890 24.0385 168° South  Level Estimated
Mon 11:42:15 PM -7.5153 24.0646 168° South  Level Estimated
Mon 11:43:15 PM -7.6417 24.0907 168° South  Level Estimated
Mon 11:44:15 PM -7.7680 24.1168 168° South  Level Estimated
Mon 11:45:15 PM -7.8943 24.1429 168° South  Level Estimated
Mon 11:46:15 PM -8.0206 24.1691 168° South  Level Estimated
Mon 11:47:15 PM -8.1469 24.1952 168° South  Level Estimated
Mon 11:48:15 PM -8.2732 24.2214 168° South  Level Estimated
Mon 11:49:15 PM -8.3995 24.2476 168° South  Level Estimated
Mon 11:50:15 PM -8.5259 24.2738 168° South  Level Estimated
Mon 11:51:15 PM -8.6522 24.3001 168° South  Level Estimated
Mon 11:52:15 PM -8.7785 24.3263 168° South  Level Estimated
Mon 11:53:15 PM -8.9048 24.3526 168° South  Level Estimated
Mon 11:54:15 PM -9.0311 24.3788 168° South  Level Estimated
Mon 11:55:15 PM -9.1574 24.4051 168° South  Level Estimated
Mon 11:56:15 PM -9.2837 24.4315 168° South  Level Estimated
Mon 11:57:15 PM -9.4100 24.4578 168° South  Level Estimated
Mon 11:58:15 PM -9.5362 24.4842 168° South  Level Estimated
Mon 11:59:15 PM -9.6625 24.5105 168° South  Level Estimated
Tue 12:00:15 AM -9.7888 24.5369 168° South  Level Estimated
Tue 12:01:15 AM -9.9151 24.5634 168° South  Level Estimated
Tue 12:02:15 AM -10.0414 24.5898 168° South  Level Estimated
Tue 12:03:15 AM -10.1677 24.6163 168° South  Level Estimated
Tue 12:04:15 AM -10.2940 24.6427 168° South  Level Estimated
Tue 12:05:15 AM -10.4202 24.6692 168° South  Level Estimated
Tue 12:06:15 AM -10.5465 24.6958 168° South  Level Estimated
Tue 12:07:15 AM -10.6728 24.7223 168° South  Level Estimated
Tue 12:08:15 AM -10.7991 24.7489 168° South  Level Estimated
Tue 12:09:15 AM -10.9253 24.7755 168° South  Level Estimated
Tue 12:10:15 AM -11.0516 24.8021 168° South  Level Estimated
Tue 12:11:15 AM -11.1778 24.8287 168° South  Level Estimated
Tue 12:12:15 AM -11.3041 24.8554 168° South  Level Estimated
Tue 12:13:15 AM -11.4304 24.8820 168° South  Level Estimated
Tue 12:14:15 AM -11.5566 24.9087 168° South  Level Estimated
Tue 12:15:15 AM -11.6829 24.9355 168° South  Level Estimated
Tue 12:16:15 AM -11.8091 24.9622 168° South  Level Estimated
Tue 12:17:15 AM -11.9354 24.9890 168° South  Level Estimated
Tue 12:18:15 AM -12.0616 25.0158 168° South  Level Estimated
Tue 12:19:15 AM -12.1879 25.0426 168° South  Level Estimated
Tue 12:20:15 AM -12.3141 25.0695 168° South  Level Estimated
Tue 12:21:15 AM -12.4404 25.0964 168° South  Level Estimated
Tue 12:22:15 AM -12.5666 25.1233 168° South  Level Estimated
Tue 12:23:15 AM -12.6928 25.1502 168° South  Level Estimated
Tue 12:24:15 AM -12.8191 25.1772 168° South  Level Estimated
Tue 12:25:15 AM -12.9453 25.2041 168° South  Level Estimated
Tue 12:26:15 AM -13.0715 25.2311 168° South  Level Estimated
Tue 12:27:15 AM -13.1977 25.2582 168° South  Level Estimated
Tue 12:28:15 AM -13.3240 25.2853 168° South  Level Estimated
Tue 12:29:15 AM -13.4502 25.3124 168° South  Level Estimated
Tue 12:30:15 AM -13.5764 25.3395 168° South  Level Estimated
Tue 12:31:15 AM -13.7026 25.3666 168° South  Level Estimated
Tue 12:32:15 AM -13.8288 25.3938 168° South  Level Estimated
Tue 12:33:15 AM -13.9550 25.4210 168° South  Level Estimated
Tue 12:34:15 AM -14.0812 25.4483 168° South  Level Estimated
Tue 12:35:15 AM -14.2074 25.4755 168° South  Level Estimated
Tue 12:36:15 AM -14.3336 25.5028 168° South  Level Estimated
Tue 12:37:15 AM -14.4598 25.5302 168° South  Level Estimated
Tue 12:38:15 AM -14.5860 25.5575 168° South  Level Estimated
Tue 12:39:15 AM -14.7122 25.5849 168° South  Level Estimated
Tue 12:40:15 AM -14.8384 25.6124 168° South  Level Estimated
Tue 12:41:15 AM -14.9646 25.6398 168° South  Level Estimated
Tue 12:42:15 AM -15.0907 25.6673 168° South  Level Estimated
Tue 12:43:15 AM -15.2169 25.6949 168° South  Level Estimated
Tue 12:44:15 AM -15.3431 25.7224 168° South  Level Estimated
Tue 12:45:15 AM -15.4692 25.7500 168° South  Level Estimated
Tue 12:46:15 AM -15.5954 25.7776 168° South  Level Estimated
Tue 12:47:15 AM -15.7216 25.8053 168° South  Level Estimated
Tue 12:48:15 AM -15.8477 25.8330 168° South  Level Estimated
Tue 12:49:15 AM -15.9739 25.8607 168° South  Level Estimated
Tue 12:50:15 AM -16.1000 25.8885 168° South  Level Estimated
Tue 12:51:15 AM -16.2262 25.9163 168° South  Level Estimated
Tue 12:52:15 AM -16.3523 25.9441 168° South  Level Estimated
Tue 12:53:15 AM -16.4785 25.9720 168° South  Level Estimated
Tue 12:54:15 AM -16.6046 25.9999 168° South  Level Estimated
Tue 12:55:15 AM -16.7307 26.0278 168° South  Level Estimated
Tue 12:56:15 AM -16.8568 26.0558 168° South  Level Estimated
Tue 12:57:15 AM -16.9830 26.0838 168° South  Level Estimated
Tue 12:58:15 AM -17.1091 26.1119 168° South  Level Estimated
Tue 12:59:15 AM -17.2352 26.1400 168° South  Level Estimated
Tue 01:00:15 AM -17.3613 26.1681 168° South  Level Estimated
Tue 01:01:15 AM -17.4874 26.1963 168° South  Level Estimated
Tue 01:02:15 AM -17.6135 26.2245 168° South  Level Estimated
Tue 01:03:15 AM -17.7396 26.2527 168° South  Level Estimated
Tue 01:04:15 AM -17.8657 26.2810 168° South  Level Estimated
Tue 01:05:15 AM -17.9918 26.3093 168° South  Level Estimated
Tue 01:06:15 AM -18.1179 26.3377 168° South  Level Estimated
Tue 01:07:15 AM -18.2440 26.3661 168° South  Level Estimated
Tue 01:08:15 AM -18.3701 26.3946 168° South  Level Estimated
Tue 01:09:15 AM -18.4962 26.4231 168° South  Level Estimated
Tue 01:10:15 AM -18.6222 26.4516 168° South  Level Estimated
Tue 01:11:15 AM -18.7483 26.4802 168° South  Level Estimated
Tue 01:12:15 AM -18.8744 26.5088 168° South  Level Estimated
Tue 01:13:15 AM -19.0004 26.5375 168° South  Level Estimated
Tue 01:14:15 AM -19.1265 26.5662 168° South  Level Estimated
Tue 01:15:15 AM -19.2525 26.5949 168° South  Level Estimated
Tue 01:16:15 AM -19.3786 26.6237 168° South  Level Estimated
Tue 01:17:15 AM -19.5046 26.6525 168° South  Level Estimated
Tue 01:18:15 AM -19.6306 26.6814 168° South  Level Estimated
Tue 01:19:15 AM -19.7567 26.7104 168° South  Level Estimated
Tue 01:20:15 AM -19.8827 26.7393 168° South  Level Estimated
Tue 01:21:15 AM -20.0087 26.7684 168° South  Level Estimated
Tue 01:22:15 AM -20.1347 26.7974 168° South  Level Estimated
Tue 01:23:15 AM -20.2607 26.8265 168° South  Level Estimated
Tue 01:24:15 AM -20.3868 26.8557 168° South  Level Estimated
Tue 01:25:15 AM -20.5128 26.8849 168° South  Level Estimated
Tue 01:26:15 AM -20.6388 26.9142 168° South  Level Estimated
Tue 01:27:15 AM -20.7647 26.9435 168° South  Level Estimated
Tue 01:28:15 AM -20.8907 26.9728 168° South  Level Estimated
Tue 01:29:15 AM -21.0167 27.0022 168° South  Level Estimated
Tue 01:30:15 AM -21.1427 27.0317 168° South  Level Estimated
Tue 01:31:15 AM -21.2687 27.0612 168° South  Level Estimated
Tue 01:32:15 AM -21.3946 27.0907 168° South  Level Estimated
Tue 01:33:15 AM -21.5206 27.1203 168° South  Level Estimated
Tue 01:34:15 AM -21.6466 27.1500 168° South  Level Estimated
Tue 01:35:15 AM -21.7725 27.1797 168° South  Level Estimated
Tue 01:36:15 AM -21.8985 27.2095 168° South  Level Estimated
Tue 01:37:15 AM -22.0244 27.2393 168° South  Level Estimated
Tue 01:38:15 AM -22.1510 27.2693 168° South  Level Estimated
Tue 01:39:15 AM -22.2776 27.2994 168° South  Level Estimated
Tue 01:40:15 AM -22.4041 27.3295 168° South  Level Estimated
Tue 01:41:15 AM -22.5307 27.3597 168° South  Level Estimated
Tue 01:42:15 AM -22.6572 27.3899 168° South  Level Estimated
Tue 01:43:15 AM -22.7838 27.4202 168° South  Level Estimated
Tue 01:44:15 AM -22.9104 27.4506 168° South  Level Estimated
Tue 01:45:15 AM -23.0369 27.4810 168° South  Level Estimated
Tue 01:46:15 AM -23.1634 27.5114 168° South  Level Estimated
Tue 01:47:15 AM -23.2900 27.5420 167° South  Level Estimated
Tue 01:48:15 AM -23.4165 27.5725 167° South  Level Estimated
Tue 01:49:15 AM -23.5430 27.6032 167° South  Level Estimated
Tue 01:50:15 AM -23.6695 27.6339 167° South  Level Estimated
Tue 01:51:15 AM -23.7960 27.6646 167° South  Level Estimated
Tue 01:52:15 AM -23.9225 27.6955 167° South  Level Estimated
Tue 01:53:15 AM -24.0490 27.7264 167° South  Level Estimated
Tue 01:54:15 AM -24.1755 27.7573 167° South  Level Estimated
Tue 01:55:15 AM -24.3020 27.7883 167° South  Level Estimated
Tue 01:56:15 AM -24.4284 27.8193 167° South  Level Estimated
Tue 01:57:15 AM -24.5549 27.8505 167° South  Level Estimated
Tue 01:58:15 AM -24.6814 27.8817 167° South  Level Estimated
Tue 01:59:15 AM -24.8078 27.9129 167° South  Level Estimated
Tue 02:00:15 AM -24.9343 27.9442 167° South  Level Estimated
Tue 02:01:15 AM -25.0607 27.9756 167° South  Level Estimated
Tue 02:02:15 AM -25.1872 28.0070 167° South  Level Estimated
Tue 02:03:15 AM -25.3136 28.0386 167° South  Level Estimated
Tue 02:04:15 AM -25.4400 28.0701 167° South  Level Estimated
Tue 02:05:15 AM -25.5654 28.1015 167° South  Level Estimated
Tue 02:06:15 AM -25.6907 28.1329 167° South  Level Estimated
Tue 02:07:15 AM -25.8160 28.1645 167° South  Level Estimated
Tue 02:08:15 AM -25.9414 28.1960 167° South  Level Estimated
Tue 02:09:15 AM -26.0626 28.2266 167° South  Level Estimated
Tue 02:10:15 AM -26.1838 28.2573 347° North  Level Estimated
Tue 02:11:15 AM -26.0626 28.2266 167° South  Level Estimated
Tue 02:12:15 AM -26.1838 28.2573 347° North  Level Estimated
Tue 02:13:15 AM -26.0626 28.2266 167° South  Level Estimated
Tue 02:14:15 AM -26.1838 28.2573 347° North  Level Estimated
Tue 02:15:15 AM -26.0626 28.2266 167° South  Level Estimated
Tue 02:16:15 AM -26.1838 28.2573 347° North  Level Estimated
Tue 02:17:15 AM -26.0626 28.2266 167° South  Level Estimated
Tue 02:18:15 AM -26.1838 28.2573 347° North  Level Estimated
Tue 02:19:15 AM -26.0626 28.2266 167° South  Level Estimated
Tue 02:20:15 AM -26.1838 28.2573 347° North  Level Estimated
Tue 02:21:15 AM -26.0626 28.2266 167° South  Level Estimated
Tue 02:22:15 AM -26.1838 28.2573 347° North  Level Estimated
Tue 02:23:15 AM -26.0626 28.2266 167° South  Level Estimated
Tue 02:24:15 AM -26.1838 28.2573 347° North  Level Estimated
Tue 02:25:15 AM -26.0626 28.2266 167° South  Level Estimated
Tue 02:26:15 AM -26.1838 28.2573 347° North  Level Estimated
Tue 02:27:15 AM -26.0626 28.2266 167° South  Level Estimated
Tue 02:28:15 AM -26.1838 28.2573 347° North  Level Estimated
Tue 02:29:15 AM -26.0626 28.2266 167° South  Level Estimated
Tue 02:30:15 AM -26.1838 28.2573 347° North  Level Estimated
Tue 02:31:15 AM -26.0626 28.2266 167° South  Level Estimated
Tue 02:32:15 AM -26.1838 28.2573 347° North  Level Estimated
Tue 02:33:15 AM -26.0626 28.2266 167° South  Level Estimated
Tue 02:34:15 AM -26.1838 28.2573 347° North  Level Estimated
Tue 02:35:15 AM -26.0626 28.2266 167° South  Level Estimated
Tue 02:36:15 AM -26.1838 28.2573 347° North  Level Estimated
Tue 02:37:15 AM -26.0626 28.2266 167° South  Level Estimated
Tue 02:38:15 AM -26.1838 28.2573 347° North  Level Estimated
Tue 02:39:15 AM -26.0626 28.2266 167° South  Level Estimated
Tue 02:40:15 AM -26.1838 28.2573 167° South  Level Estimated

Login

Don't have an account? Register now (free) for customized features, flight alerts, and more!